createdAt,value
2022-11-19T00:01:23.389Z,1.77
2022-11-19T00:03:52.900Z,1.77
2022-11-19T00:06:30.134Z,1.90
2022-11-19T00:08:57.964Z,1.90
2022-11-19T00:11:45.072Z,2.13
2022-11-19T00:14:13.552Z,1.73
2022-11-19T00:16:41.718Z,1.65
2022-11-19T00:19:10.949Z,1.77
2022-11-19T00:21:38.585Z,2.13
2022-11-19T00:24:06.192Z,2.28
2022-11-19T00:26:34.110Z,2.00
2022-11-19T00:29:01.652Z,2.15
2022-11-19T00:31:29.223Z,1.92
2022-11-19T00:33:56.900Z,2.28
2022-11-19T00:36:25.102Z,2.70
2022-11-19T00:38:52.484Z,2.78
2022-11-19T00:41:20.016Z,2.15
2022-11-19T00:43:47.817Z,2.92
2022-11-19T00:46:26.262Z,2.33
2022-11-19T00:48:55.301Z,3.20
2022-11-19T00:51:23.493Z,2.63
2022-11-19T00:53:51.311Z,2.28
2022-11-19T00:56:20.362Z,2.10
2022-11-19T00:58:48.229Z,2.40
2022-11-19T01:01:16.824Z,2.10
2022-11-19T01:03:46.367Z,2.28
2022-11-19T01:06:18.819Z,1.80
2022-11-19T01:08:47.623Z,1.73
2022-11-19T01:11:21.308Z,2.22
2022-11-19T01:13:49.176Z,2.13
2022-11-19T01:16:19.520Z,1.65
2022-11-19T01:18:47.983Z,1.92
2022-11-19T01:21:15.860Z,2.05
2022-11-19T01:23:44.463Z,1.70
2022-11-19T01:26:12.448Z,1.90
2022-11-19T01:28:40.109Z,2.00
2022-11-19T01:31:12.410Z,1.77
2022-11-19T01:33:40.252Z,1.90
2022-11-19T01:36:09.691Z,2.15
2022-11-19T01:38:37.251Z,2.30
2022-11-19T01:41:05.400Z,2.15
2022-11-19T01:43:42.360Z,2.33
2022-11-19T01:46:10.809Z,2.33
2022-11-19T01:48:40.600Z,2.15
2022-11-19T01:51:14.680Z,1.92
2022-11-19T01:53:44.863Z,2.20
2022-11-19T01:56:12.681Z,2.00
2022-11-19T01:58:43.180Z,2.20
2022-11-19T02:01:11.598Z,1.60
2022-11-19T02:03:41.025Z,1.88
2022-11-19T02:06:08.771Z,1.77
2022-11-19T02:08:38.161Z,1.83
2022-11-19T02:11:29.043Z,1.70
2022-11-19T02:13:56.474Z,1.45
2022-11-19T02:16:28.331Z,1.65
2022-11-19T02:18:57.528Z,2.00
2022-11-19T02:21:31.182Z,2.13
2022-11-19T02:24:07.913Z,1.77
2022-11-19T02:26:35.411Z,1.83
2022-11-19T02:29:21.941Z,1.80
2022-11-19T02:31:54.440Z,1.75
2022-11-19T02:34:26.161Z,1.73
2022-11-19T02:37:06.480Z,1.60
2022-11-19T02:39:40.808Z,2.10
2022-11-19T02:44:57.632Z,1.90
2022-11-19T02:47:28.369Z,1.90
2022-11-19T02:49:57.413Z,1.95
2022-11-19T02:52:24.865Z,2.25
2022-11-19T02:54:52.520Z,2.05
2022-11-19T02:57:20.365Z,2.20
2022-11-19T03:00:06.750Z,2.10
2022-11-19T03:02:57.134Z,2.20
2022-11-19T03:05:27.152Z,2.28
2022-11-19T03:07:55.183Z,2.42
2022-11-19T03:10:25.218Z,2.60
2022-11-19T03:12:55.684Z,2.78
2022-11-19T03:15:44.853Z,3.00
2022-11-19T03:18:22.539Z,3.00
2022-11-19T03:20:56.510Z,2.90
2022-11-19T03:23:27.931Z,3.13
2022-11-19T03:25:59.500Z,3.53
2022-11-19T03:28:30.901Z,2.88
2022-11-19T03:30:59.910Z,3.17
2022-11-19T03:33:35.181Z,2.92
2022-11-19T03:36:06.663Z,2.90
2022-11-19T03:38:37.400Z,3.05
2022-11-19T03:41:06.530Z,3.25
2022-11-19T03:43:36.266Z,3.00
2022-11-19T03:46:05.313Z,3.10
2022-11-19T03:48:33.220Z,3.00
2022-11-19T03:51:13.753Z,2.58
2022-11-19T03:53:41.233Z,2.70
2022-11-19T03:56:10.963Z,3.03
2022-11-19T03:58:40.059Z,2.97
2022-11-19T04:01:07.618Z,2.88
2022-11-19T04:03:35.050Z,2.47
2022-11-19T04:06:02.781Z,2.65
2022-11-19T04:08:30.293Z,2.95
2022-11-19T04:13:26.354Z,2.97
2022-11-19T04:15:53.914Z,2.70
2022-11-19T04:18:21.490Z,2.90
2022-11-19T04:20:49.114Z,3.30
2022-11-19T04:23:17.244Z,3.08
2022-11-19T04:25:48.176Z,3.00
2022-11-19T04:28:15.710Z,3.42
2022-11-19T04:30:44.255Z,3.22
2022-11-19T04:33:11.943Z,3.38
2022-11-19T04:35:39.578Z,3.38
2022-11-19T04:38:07.390Z,3.10
2022-11-19T04:40:34.990Z,3.35
2022-11-19T04:43:02.613Z,2.65
2022-11-19T04:45:30.273Z,3.22
2022-11-19T04:47:57.785Z,3.55
2022-11-19T04:50:25.318Z,3.10
2022-11-19T04:52:53.061Z,3.17
2022-11-19T04:55:20.550Z,3.05
2022-11-19T04:57:49.889Z,3.10
2022-11-19T05:00:18.603Z,2.90
2022-11-19T05:02:46.109Z,3.00
2022-11-19T05:05:13.649Z,2.85
2022-11-19T05:07:41.679Z,4.20
2022-11-19T05:10:09.469Z,3.63
2022-11-19T05:12:37.001Z,3.15
2022-11-19T05:15:04.700Z,2.95
2022-11-19T05:17:32.989Z,2.50
2022-11-19T05:20:00.620Z,2.40
2022-11-19T05:22:28.120Z,2.60
2022-11-19T05:24:55.670Z,1.88
2022-11-19T05:27:23.403Z,1.70
2022-11-19T05:29:50.878Z,1.60
2022-11-19T05:32:18.511Z,2.10
2022-11-19T05:34:46.099Z,2.25
2022-11-19T05:37:13.632Z,1.50
2022-11-19T05:39:41.118Z,1.50
2022-11-19T05:42:08.832Z,1.27
2022-11-19T05:44:36.620Z,1.17
2022-11-19T05:47:04.133Z,1.10
2022-11-19T05:49:31.499Z,1.20
2022-11-19T05:51:59.071Z,1.05
2022-11-19T05:54:26.502Z,1.55
2022-11-19T05:56:54.252Z,1.05
2022-11-19T05:59:22.149Z,1.20
2022-11-19T06:01:50.041Z,1.00
2022-11-19T06:04:17.758Z,1.00
2022-11-19T06:06:45.310Z,1.20
2022-11-19T06:09:12.929Z,0.98
2022-11-19T06:11:50.636Z,1.00
2022-11-19T06:14:19.321Z,1.08
2022-11-19T06:16:47.025Z,1.27
2022-11-19T06:19:14.742Z,1.30
2022-11-19T06:21:42.147Z,1.27
2022-11-19T06:24:09.672Z,1.20
2022-11-19T06:26:38.322Z,1.25
2022-11-19T06:29:06.063Z,1.15
2022-11-19T06:31:33.790Z,1.60
2022-11-19T06:34:01.679Z,1.17
2022-11-19T06:36:34.913Z,1.20
2022-11-19T06:39:06.660Z,2.70
2022-11-19T06:41:34.346Z,14.32
2022-11-19T06:44:01.940Z,5.82
2022-11-19T06:46:29.494Z,5.57
2022-11-19T06:48:57.264Z,8.50
2022-11-19T06:51:25.051Z,13.25
2022-11-19T06:53:52.510Z,25.90
2022-11-19T06:56:20.038Z,15.13
2022-11-19T06:58:47.479Z,73.28
2022-11-19T07:01:15.573Z,57.70
2022-11-19T07:03:43.520Z,7.72
2022-11-19T07:06:14.414Z,1.92
2022-11-19T07:08:42.188Z,4.38
2022-11-19T07:11:28.145Z,10.32
2022-11-19T07:13:59.994Z,2.10
2022-11-19T07:16:29.663Z,2.08
2022-11-19T07:18:58.082Z,3.13
2022-11-19T07:21:25.770Z,3.45
2022-11-19T07:23:53.412Z,2.30
2022-11-19T07:26:21.238Z,5.50
2022-11-19T07:28:48.974Z,5.05
2022-11-19T07:31:16.718Z,6.82
2022-11-19T07:33:44.280Z,2.70
2022-11-19T07:36:17.015Z,2.83
2022-11-19T07:38:45.913Z,2.85
2022-11-19T07:41:32.163Z,2.70
2022-11-19T07:43:59.751Z,3.60
2022-11-19T07:46:27.430Z,2.67
2022-11-19T07:48:55.580Z,2.55
2022-11-19T07:51:23.916Z,3.22
2022-11-19T07:53:52.681Z,2.63
2022-11-19T07:56:21.235Z,2.78
2022-11-19T07:58:50.399Z,2.33
2022-11-19T08:01:20.032Z,2.70
2022-11-19T08:03:52.058Z,2.90
2022-11-19T08:06:23.877Z,2.70
2022-11-19T08:08:51.482Z,2.80
2022-11-19T08:11:19.699Z,3.90
2022-11-19T08:13:47.377Z,3.17
2022-11-19T08:16:34.795Z,2.65
2022-11-19T08:19:03.270Z,3.30
2022-11-19T08:21:31.308Z,2.80
2022-11-19T08:23:58.851Z,2.60
2022-11-19T08:26:26.303Z,3.13
2022-11-19T08:28:54.309Z,2.53
2022-11-19T08:31:21.972Z,2.35
2022-11-19T08:33:49.505Z,2.70
2022-11-19T08:36:17.019Z,2.97
2022-11-19T08:38:44.691Z,3.38
2022-11-19T08:41:31.212Z,2.97
2022-11-19T08:44:01.571Z,3.40
2022-11-19T08:46:29.015Z,3.15
2022-11-19T08:48:56.799Z,2.83
2022-11-19T08:51:24.249Z,2.83
2022-11-19T08:53:54.903Z,2.58
2022-11-19T08:56:24.202Z,2.38
2022-11-19T08:58:54.709Z,2.63
2022-11-19T09:01:24.969Z,3.20
2022-11-19T09:03:52.408Z,3.25
2022-11-19T09:06:20.212Z,2.92
2022-11-19T09:08:50.825Z,3.20
2022-11-19T09:11:19.931Z,7.07
2022-11-19T09:13:47.510Z,4.75
2022-11-19T09:16:14.923Z,3.72
2022-11-19T09:18:42.681Z,3.50
2022-11-19T09:21:10.949Z,3.60
2022-11-19T09:23:38.994Z,3.80
2022-11-19T09:26:17.809Z,4.70
2022-11-19T09:28:45.151Z,4.50
2022-11-19T09:31:13.692Z,3.55
2022-11-19T09:33:45.739Z,3.05
2022-11-19T09:36:13.553Z,2.72
2022-11-19T09:38:41.169Z,2.92
2022-11-19T09:41:14.221Z,4.00
2022-11-19T09:44:00.229Z,3.10
2022-11-19T09:46:35.452Z,3.67
2022-11-19T09:49:05.288Z,3.63
2022-11-19T09:51:34.780Z,2.92
2022-11-19T09:54:08.887Z,3.30
2022-11-19T09:56:41.165Z,3.63
2022-11-19T09:59:14.330Z,3.30
2022-11-19T10:01:41.820Z,3.70
2022-11-19T10:04:11.373Z,3.70
2022-11-19T10:06:50.964Z,3.55
2022-11-19T10:09:18.279Z,3.33
2022-11-19T10:11:51.681Z,3.15
2022-11-19T10:14:25.647Z,3.80
2022-11-19T10:17:22.918Z,3.60
2022-11-19T10:20:05.664Z,4.68
2022-11-19T10:22:39.657Z,4.10
2022-11-19T10:25:17.664Z,4.70
2022-11-19T10:27:48.056Z,4.07
2022-11-19T10:30:17.531Z,4.43
2022-11-19T10:33:05.702Z,4.97
2022-11-19T10:35:41.041Z,4.55
2022-11-19T10:38:17.051Z,3.70
2022-11-19T10:40:46.809Z,4.97
2022-11-19T10:43:22.021Z,4.10
2022-11-19T10:45:50.950Z,4.07
2022-11-19T10:48:25.672Z,5.40
2022-11-19T10:50:53.326Z,6.75
2022-11-19T10:53:26.710Z,7.97
2022-11-19T10:55:56.534Z,12.47
2022-11-19T10:58:29.991Z,6.30
2022-11-19T11:00:58.835Z,6.47
2022-11-19T11:03:39.677Z,7.68
2022-11-19T11:06:10.183Z,7.60
2022-11-19T11:08:54.159Z,8.25
2022-11-19T11:12:00.068Z,8.23
2022-11-19T11:14:46.339Z,7.00
2022-11-19T11:17:20.478Z,8.02
2022-11-19T11:20:08.150Z,7.50
2022-11-19T11:22:36.677Z,6.72
2022-11-19T11:25:07.301Z,9.60
2022-11-19T11:27:35.722Z,8.25
2022-11-19T11:30:17.514Z,7.35
2022-11-19T11:32:45.011Z,8.45
2022-11-19T11:35:45.040Z,8.57
2022-11-19T11:38:12.939Z,8.88
2022-11-19T11:40:40.378Z,8.73
2022-11-19T11:43:07.782Z,9.35
2022-11-19T11:45:37.314Z,9.73
2022-11-19T11:48:06.869Z,9.98
2022-11-19T11:50:35.555Z,10.57
2022-11-19T11:53:07.978Z,11.98
2022-11-19T11:55:36.239Z,11.65
2022-11-19T11:58:05.221Z,11.70
2022-11-19T12:00:47.961Z,12.27
2022-11-19T12:03:18.988Z,12.63
2022-11-19T12:06:01.881Z,15.95
2022-11-19T12:08:48.031Z,13.60
2022-11-19T12:11:21.694Z,15.02
2022-11-19T12:13:57.619Z,13.73
2022-11-19T12:16:43.761Z,15.90
2022-11-19T12:19:18.044Z,16.13
2022-11-19T12:22:00.944Z,16.73
2022-11-19T12:24:47.072Z,13.75
2022-11-19T12:27:20.798Z,15.68
2022-11-19T12:30:07.219Z,15.02
2022-11-19T12:33:01.220Z,14.68
2022-11-19T12:35:38.013Z,13.00
2022-11-19T12:38:05.742Z,13.45
2022-11-19T12:40:53.070Z,14.85
2022-11-19T12:43:30.117Z,14.68
2022-11-19T12:46:09.948Z,15.52
2022-11-19T12:48:43.906Z,18.13
2022-11-19T12:51:26.620Z,17.65
2022-11-19T12:53:57.123Z,18.17
2022-11-19T12:56:33.721Z,18.88
2022-11-19T12:59:01.122Z,18.02
2022-11-19T13:01:31.839Z,18.33
2022-11-19T13:04:14.621Z,19.13
2022-11-19T13:06:45.552Z,20.65
2022-11-19T13:09:19.317Z,19.25
2022-11-19T13:11:51.012Z,17.58
2022-11-19T13:14:24.279Z,17.25
2022-11-19T13:16:52.971Z,18.97
2022-11-19T13:19:30.951Z,18.13
2022-11-19T13:22:12.317Z,17.85
2022-11-19T13:24:45.018Z,18.00
2022-11-19T13:27:20.157Z,19.15
2022-11-19T13:30:00.044Z,19.83
2022-11-19T13:32:30.919Z,21.10
2022-11-19T13:35:04.990Z,21.52
2022-11-19T13:37:33.136Z,23.70
2022-11-19T13:40:04.188Z,20.98
2022-11-19T13:43:17.095Z,21.75
2022-11-19T13:45:38.137Z,22.27
2022-11-19T13:48:11.940Z,22.90
2022-11-19T13:53:08.640Z,22.67
2022-11-19T13:55:37.687Z,21.27
2022-11-19T13:58:19.811Z,21.60
2022-11-19T14:01:08.279Z,21.45
2022-11-19T14:03:39.486Z,21.05
2022-11-19T14:06:06.835Z,21.33
2022-11-19T14:08:42.110Z,23.38
2022-11-19T14:11:15.871Z,23.58
2022-11-19T14:13:46.385Z,23.00
2022-11-19T14:16:52.266Z,21.00
2022-11-19T14:19:38.702Z,21.88
2022-11-19T14:22:47.770Z,22.88
2022-11-19T14:25:54.155Z,20.40
2022-11-19T14:28:44.842Z,21.83
2022-11-19T14:31:12.805Z,20.92
2022-11-19T14:33:49.475Z,22.33
2022-11-19T14:36:23.052Z,22.55
2022-11-19T14:38:54.632Z,23.38
2022-11-19T14:41:28.199Z,20.60
2022-11-19T14:44:10.717Z,21.63
2022-11-19T14:46:39.580Z,21.90
2022-11-19T14:49:15.016Z,22.70
2022-11-19T14:51:42.581Z,23.13
2022-11-19T14:54:16.051Z,21.73
2022-11-19T14:56:46.208Z,38.47
2022-11-19T14:59:16.801Z,28.67
2022-11-19T15:01:59.625Z,28.67
2022-11-19T15:04:32.875Z,21.77
2022-11-19T15:07:00.913Z,20.53
2022-11-19T15:09:46.996Z,20.60
2022-11-19T15:12:14.340Z,20.73
2022-11-19T15:15:02.086Z,20.67
2022-11-19T15:17:29.715Z,18.98
2022-11-19T15:20:08.262Z,19.65
2022-11-19T15:22:49.595Z,20.17
2022-11-19T15:25:20.027Z,18.90
2022-11-19T15:27:55.692Z,19.08
2022-11-19T15:30:43.367Z,20.60
2022-11-19T15:33:31.713Z,21.17
2022-11-19T15:36:17.825Z,21.50
2022-11-19T15:39:00.596Z,21.40
2022-11-19T15:41:31.131Z,23.58
2022-11-19T15:44:00.275Z,24.10
2022-11-19T15:46:30.424Z,22.73
2022-11-19T15:49:13.805Z,24.50
2022-11-19T15:51:51.885Z,25.92
2022-11-19T15:54:19.255Z,23.88
2022-11-19T15:56:50.982Z,25.70
2022-11-19T15:59:19.271Z,26.33
2022-11-19T16:01:56.508Z,25.73
2022-11-19T16:04:23.973Z,29.20
2022-11-19T16:06:51.953Z,25.80
2022-11-19T16:09:23.692Z,26.45
2022-11-19T16:12:09.763Z,24.55
2022-11-19T16:14:55.731Z,27.88
2022-11-19T16:17:41.706Z,26.08
2022-11-19T16:20:11.123Z,31.80
2022-11-19T16:22:40.033Z,37.30
2022-11-19T16:25:15.161Z,32.47
2022-11-19T16:27:43.222Z,42.22
2022-11-19T16:30:24.353Z,69.10
2022-11-19T16:32:51.985Z,27.15
2022-11-19T16:35:38.025Z,36.17
2022-11-19T16:38:05.427Z,27.33
2022-11-19T16:40:53.054Z,27.08
2022-11-19T16:43:20.995Z,25.38
2022-11-19T16:45:48.662Z,25.25
2022-11-19T16:48:35.057Z,29.17
2022-11-19T16:51:22.324Z,24.85
2022-11-19T16:53:49.752Z,26.67
2022-11-19T16:56:17.227Z,27.98
2022-11-19T16:58:46.565Z,31.08
2022-11-19T17:01:18.024Z,31.48
2022-11-19T17:03:46.004Z,27.85
2022-11-19T17:06:25.779Z,31.55
2022-11-19T17:09:02.191Z,28.83
2022-11-19T17:11:57.273Z,27.15
2022-11-19T17:14:41.555Z,23.52
2022-11-19T17:17:27.830Z,23.98
2022-11-19T17:19:56.777Z,24.13
2022-11-19T17:22:28.006Z,23.30
2022-11-19T17:24:55.458Z,24.17
2022-11-19T17:27:22.748Z,26.52
2022-11-19T17:29:50.247Z,24.92
2022-11-19T17:32:17.630Z,24.27
2022-11-19T17:34:46.441Z,24.35
2022-11-19T17:37:13.814Z,25.85
2022-11-19T17:39:41.093Z,25.25
2022-11-19T17:42:29.171Z,24.58
2022-11-19T17:44:56.782Z,25.75
2022-11-19T17:47:24.564Z,26.27
2022-11-19T17:49:52.972Z,26.05
2022-11-19T17:52:27.297Z,23.00
2022-11-19T17:54:56.356Z,23.17
2022-11-19T17:57:23.691Z,21.05
2022-11-19T17:59:51.066Z,22.08
2022-11-19T18:02:19.524Z,21.58
2022-11-19T18:04:47.482Z,20.17
2022-11-19T18:07:15.382Z,17.80
2022-11-19T18:09:42.848Z,16.77
2022-11-19T18:12:15.387Z,16.63
2022-11-19T18:14:42.905Z,15.82
2022-11-19T18:17:14.464Z,15.68
2022-11-19T18:19:42.015Z,14.50
2022-11-19T18:22:17.282Z,46.85
2022-11-19T18:24:45.155Z,16.42
2022-11-19T18:27:12.525Z,14.05
2022-11-19T18:29:40.022Z,13.65
2022-11-19T18:37:31.014Z,13.90
2022-11-19T18:39:58.512Z,13.73
2022-11-19T18:42:26.370Z,12.82
2022-11-19T18:44:53.794Z,12.95
2022-11-19T18:47:23.735Z,12.63
2022-11-19T18:49:51.526Z,14.55
2022-11-19T18:52:19.870Z,16.15
2022-11-19T18:54:47.483Z,13.38
2022-11-19T18:57:15.233Z,14.60
2022-11-19T18:59:42.801Z,15.27
2022-11-19T19:02:11.233Z,15.10
2022-11-19T19:04:38.824Z,14.93
2022-11-19T19:07:06.391Z,14.65
2022-11-19T19:09:33.870Z,14.75
2022-11-19T19:12:20.638Z,16.25
2022-11-19T19:14:49.112Z,14.75
2022-11-19T19:17:17.053Z,14.25
2022-11-19T19:19:44.664Z,13.18
2022-11-19T19:22:12.354Z,12.63
2022-11-19T19:24:39.712Z,13.18
2022-11-19T19:27:07.622Z,13.13
2022-11-19T19:29:35.483Z,14.90
2022-11-19T19:32:04.631Z,14.27
2022-11-19T19:34:32.865Z,14.68
2022-11-19T19:37:00.365Z,16.95
2022-11-19T19:39:27.902Z,18.40
2022-11-19T19:41:55.513Z,16.20
2022-11-19T19:44:23.771Z,17.25
2022-11-19T19:46:52.920Z,13.35
2022-11-19T19:49:21.027Z,16.00
2022-11-19T19:51:49.709Z,15.77
2022-11-19T19:54:17.462Z,18.05
2022-11-19T19:56:45.012Z,17.58
2022-11-19T19:59:16.410Z,17.10
2022-11-19T20:01:47.731Z,16.60
2022-11-19T20:04:16.445Z,17.95
2022-11-19T20:06:48.136Z,16.52
2022-11-19T20:09:16.447Z,16.90
2022-11-19T20:11:44.110Z,20.05
2022-11-19T20:14:11.748Z,18.38
2022-11-19T20:16:40.605Z,21.67
2022-11-19T20:19:09.285Z,17.65
2022-11-19T20:21:37.557Z,14.15
2022-11-19T20:24:11.890Z,14.77
2022-11-19T20:26:40.843Z,14.13
2022-11-19T20:29:10.064Z,15.38
2022-11-19T20:31:37.471Z,12.13
2022-11-19T20:34:05.854Z,11.48
2022-11-19T20:36:36.582Z,12.25
2022-11-19T20:39:05.245Z,11.55
2022-11-19T20:41:51.921Z,11.82
2022-11-19T20:44:26.213Z,12.57
2022-11-19T20:46:57.181Z,12.30
2022-11-19T20:49:31.285Z,12.50
2022-11-19T20:54:27.142Z,9.93
2022-11-19T20:56:56.240Z,9.98
2022-11-19T20:59:26.044Z,12.57
2022-11-19T21:01:54.569Z,11.77
2022-11-19T21:04:22.633Z,12.13
2022-11-19T21:06:52.860Z,11.27
2022-11-19T21:09:21.048Z,10.13
2022-11-19T21:11:49.192Z,10.02
2022-11-19T21:14:17.333Z,11.23
2022-11-19T21:16:45.421Z,10.95
2022-11-19T21:19:13.985Z,9.57
2022-11-19T21:21:41.432Z,8.88
2022-11-19T21:24:09.171Z,9.43
2022-11-19T21:26:37.079Z,10.55
2022-11-19T21:29:04.964Z,9.05
2022-11-19T21:31:46.321Z,9.35
2022-11-19T21:34:15.781Z,11.05
2022-11-19T21:36:43.775Z,9.15
2022-11-19T21:39:12.235Z,9.93
2022-11-19T21:41:39.821Z,13.40
2022-11-19T21:44:07.713Z,11.30
2022-11-19T21:46:35.782Z,9.40
2022-11-19T21:49:03.598Z,9.70
2022-11-19T21:51:31.553Z,9.50
2022-11-19T21:53:59.639Z,9.63
2022-11-19T21:56:28.022Z,8.98
2022-11-19T21:58:55.674Z,9.27
2022-11-19T22:01:23.314Z,13.88
2022-11-19T22:03:50.944Z,12.60
2022-11-19T22:06:18.335Z,11.20
2022-11-19T22:08:45.781Z,12.32
2022-11-19T22:11:32.138Z,12.38
2022-11-19T22:14:05.015Z,12.07
2022-11-19T22:16:33.252Z,13.05
2022-11-19T22:19:00.845Z,13.77
2022-11-19T22:21:29.334Z,11.90
2022-11-19T22:23:59.480Z,12.68
2022-11-19T22:26:27.241Z,13.55
2022-11-19T22:28:56.702Z,20.88
2022-11-19T22:31:24.245Z,19.13
2022-11-19T22:33:52.317Z,18.35
2022-11-19T22:36:20.869Z,18.45
2022-11-19T22:38:48.724Z,14.60
2022-11-19T22:41:17.991Z,14.45
2022-11-19T22:43:45.580Z,14.95
2022-11-19T22:46:13.753Z,12.88
2022-11-19T22:48:41.494Z,13.98
2022-11-19T22:51:12.091Z,12.88
2022-11-19T22:53:39.706Z,15.30
2022-11-19T22:56:08.462Z,18.08
2022-11-19T22:58:36.861Z,19.02
2022-11-19T23:01:05.361Z,14.40
2022-11-19T23:03:33.134Z,18.45
2022-11-19T23:06:01.007Z,25.10
2022-11-19T23:08:28.784Z,17.90
2022-11-19T23:11:03.590Z,24.60
2022-11-19T23:13:32.163Z,38.03
2022-11-19T23:16:00.342Z,24.08
2022-11-19T23:18:28.335Z,22.33
2022-11-19T23:21:00.002Z,26.65
2022-11-19T23:23:28.113Z,33.13
2022-11-19T23:25:59.384Z,14.52
2022-11-19T23:28:27.680Z,14.45
2022-11-19T23:30:55.272Z,15.27
2022-11-19T23:33:23.299Z,16.17
2022-11-19T23:35:50.853Z,18.17
2022-11-19T23:38:18.454Z,21.23
2022-11-19T23:40:46.184Z,20.92
2022-11-19T23:43:13.802Z,13.70
2022-11-19T23:45:41.374Z,15.15
2022-11-19T23:48:09.071Z,13.70
2022-11-19T23:50:36.503Z,12.70
2022-11-19T23:53:04.039Z,11.40
2022-11-19T23:55:31.581Z,11.02
2022-11-19T23:57:59.393Z,10.00
